Braunschweig Waggum, Germany

10:30 PM CEST on August 20, 2014 (GMT +0200)
BS-Gliesmarode | Change Station
CLOSE
Current Station
Personal Weather Station
Location: Braunschweig, Niedersachsen
Elevation: 253 ft
Nearby Weather Stations

Elev 253 ft 52.28 °N, 10.54 °E | Updated 0 second ago

Scattered Clouds
Scattered Clouds
54.4 °F
Feels Like 54.4 °F
N
3.5
Wind Variable Wind from SSW
Gusts 3.5 mph

Today
High -- | Low -- °F
--% Chance of Precip.
Yesterday
High -- | Low -- °F
Precip. -- in
6:08 AM 8:32 PM
Waning Crescent, 19% visible
Pressure 29.98 in
Visibility 6.2 miles
Clouds Scattered Clouds 10000 ft
Dew Point 46 °F
Humidity 74%
Rainfall 0.00 in
Snow Depth Not available.
UV 0.0 out of 12
Pollen Not available.
Air Quality Not available.
Flu Activity Not available.
METAR ETHC 202020Z 00000KT 9999 SCT100 11/09 Q1015 BLU+

More Conditions Fewer Conditions

Pressure 29.98 in
Visibility 6.2 miles
Clouds Scattered Clouds 10000 ft
Dew Point 46 °F
Humidity 74%
Rainfall 0.00 in
Snow Depth Not available.
UV 0.0 out of 12
Pollen Not available.
Air Quality Not available.
Flu Activity Not available.
METAR ETHC 202020Z 00000KT 9999 SCT100 11/09 Q1015 BLU+

More Conditions Fewer Conditions

10-Day Weather Forecast

Almanac

Astronomy

Aug. 20, 2014 Rise Set
Actual Time 6:08 AM CEST 8:32 PM CEST
Civil Twilight 5:31 AM CEST 9:09 PM CEST
Nautical Twilight 4:43 AM CEST 9:57 PM CEST
Astronomical Twilight 3:46 AM CEST 10:53 PM CEST
Moon 1:20 AM CEST 5:18 PM CEST
Length of Visible Light 15h 38m
Length of Day
14h 23m
Tomorrow will be 3m 49s shorter.
Waning Crescent, 19% of the Moon is Illuminated
Today
Waning Crescent
Aug 25
New
Sep 2
First Quarter
Sep 8
Full
Sep 15
Last Quarter

Today's Extremes

Country Highs Country Lows

Community

WunderPhotos

Upload Photos

1,745,750 photos uploaded!

WunderBlogs® & News

By Dr. Jeff Masters
Director of Meteorology, Weather Underground
By Kari Strenfel
Meteorologist, Weather Underground
By Christopher C. Burt
Weather Historian, Weather Underground
August 20, 2014
August 20, 2014
August 20, 2014

Nearby

Snow Depth

Not available.

Earthquake Activity

City Distance Mag. Time & Date
No recent earthquake activity has been reported nearby.
Minimum magnitude displayed is 2.5.

Coastal Water Temperatures

Place Temperature
No Stations Reporting

Nearby Weather Stations